Time;durP1;ratioP1;P1;durP2;ratioP2;P2;SDS_P1;SDS_P2;PMS_P1;PMS_P2;Temp;Humidity;BMP_temperature;BMP_pressure;BME280_temperature;BME280_humidity;BME280_pressure;Samples;Min_cycle;Max_cycle;Signal;HPM_P1;HPM_P2
2021/06/28 00:01:02;;;;;;;24.75;17.33;;;20.80;99.90;;;;;;5053573;28;20660;-74
2021/06/28 00:03:29;;;;;;;24.90;17.58;;;20.70;99.90;;;;;;5046940;28;20210;-76
2021/06/28 00:05:56;;;;;;;26.27;17.85;;;20.80;99.90;;;;;;5048933;28;20207;-76
2021/06/28 00:08:22;;;;;;;22.17;16.88;;;20.70;99.90;;;;;;5049292;28;20195;-74
2021/06/28 00:10:50;;;;;;;25.55;20.15;;;20.70;99.90;;;;;;5041018;28;20428;-76
2021/06/28 00:13:18;;;;;;;28.70;20.90;;;21.20;99.90;;;;;;5045985;28;20428;-74
2021/06/28 00:15:46;;;;;;;28.98;20.60;;;21.50;99.90;;;;;;5044881;28;20437;-75
2021/06/28 00:18:15;;;;;;;26.73;20.45;;;21.70;99.90;;;;;;5046616;28;20429;-74
2021/06/28 00:20:42;;;;;;;27.88;20.35;;;21.80;99.90;;;;;;5045355;28;20673;-74
2021/06/28 00:23:09;;;;;;;26.92;19.95;;;21.80;99.90;;;;;;5047791;28;20435;-75
2021/06/28 00:25:37;;;;;;;24.58;18.20;;;21.90;99.90;;;;;;5049581;28;20261;-74
2021/06/28 00:28:05;;;;;;;27.27;18.90;;;21.60;99.90;;;;;;5049743;28;20199;-74
2021/06/28 00:30:37;;;;;;;24.98;18.33;;;21.40;99.90;;;;;;5049414;28;20976;-73
2021/06/28 00:33:05;;;;;;;25.50;19.70;;;21.20;99.90;;;;;;5046488;28;20203;-73
2021/06/28 00:35:33;;;;;;;28.83;18.90;;;21.20;99.90;;;;;;5048550;28;20203;-75
2021/06/28 00:37:59;;;;;;;30.65;19.95;;;21.10;99.90;;;;;;5050224;28;20588;-75
2021/06/28 00:40:27;;;;;;;27.27;19.65;;;21.10;99.90;;;;;;5045833;28;20213;-74
2021/06/28 00:42:54;;;;;;;27.85;20.05;;;21.00;99.90;;;;;;5044304;28;20191;-75
2021/06/28 00:45:23;;;;;;;28.50;20.65;;;21.00;99.90;;;;;;5048623;28;20199;-74
2021/06/28 00:47:56;;;;;;;29.45;21.23;;;20.90;99.90;;;;;;5048268;28;20195;-74
2021/06/28 00:50:25;;;;;;;33.65;21.10;;;20.90;99.90;;;;;;5046627;28;20659;-74
2021/06/28 00:52:55;;;;;;;33.05;21.70;;;20.90;99.90;;;;;;5048333;28;20289;-73
2021/06/28 00:55:23;;;;;;;30.75;21.05;;;20.80;99.90;;;;;;5044880;28;20195;-73
2021/06/28 00:57:50;;;;;;;31.85;20.85;;;20.80;99.90;;;;;;5046112;28;20219;-74
2021/06/28 01:00:19;;;;;;;31.85;21.58;;;20.80;99.90;;;;;;5044373;28;20230;-73
2021/06/28 01:02:46;;;;;;;30.25;21.27;;;20.80;99.90;;;;;;5043999;28;20206;-74
2021/06/28 01:05:20;;;;;;;31.73;21.98;;;20.80;99.90;;;;;;5044705;28;20691;-75
2021/06/28 01:07:48;;;;;;;33.35;22.38;;;20.80;99.90;;;;;;5047511;28;20202;-74
2021/06/28 01:10:16;;;;;;;29.92;22.27;;;20.80;99.90;;;;;;5045519;28;20203;-74
2021/06/28 01:12:43;;;;;;;29.80;22.08;;;20.80;99.90;;;;;;5047772;28;20578;-74
2021/06/28 01:15:11;;;;;;;35.55;21.88;;;20.80;99.90;;;;;;5045965;28;20203;-74
2021/06/28 01:17:40;;;;;;;33.42;21.10;;;20.80;99.90;;;;;;5046236;28;20237;-74
2021/06/28 01:20:09;;;;;;;32.13;23.10;;;20.80;99.90;;;;;;5044494;28;20211;-74
2021/06/28 01:22:41;;;;;;;30.38;22.77;;;20.80;99.90;;;;;;5047280;28;20200;-74
2021/06/28 01:25:12;;;;;;;32.15;22.42;;;20.80;99.90;;;;;;5044246;28;20203;-75
2021/06/28 01:27:40;;;;;;;32.53;22.08;;;20.80;99.90;;;;;;5045507;28;20199;-75
2021/06/28 01:30:10;;;;;;;33.15;23.23;;;20.80;99.90;;;;;;5048763;28;20199;-73
2021/06/28 01:32:37;;;;;;;32.08;22.27;;;20.70;99.90;;;;;;5046938;28;20211;-74
2021/06/28 01:35:05;;;;;;;34.85;22.92;;;20.70;99.90;;;;;;5048723;28;20206;-75
2021/06/28 01:37:32;;;;;;;35.07;24.60;;;20.70;99.90;;;;;;5044323;28;20415;-75
2021/06/28 01:40:01;;;;;;;34.50;24.75;;;21.20;99.90;;;;;;5045470;28;20428;-76
2021/06/28 01:42:29;;;;;;;29.52;22.90;;;21.40;99.90;;;;;;5043805;28;20428;-73
2021/06/28 01:44:57;;;;;;;32.00;23.85;;;21.60;99.90;;;;;;5062110;28;20427;-74
2021/06/28 01:47:24;;;;;;;31.75;24.00;;;21.70;99.90;;;;;;5044671;28;21055;-75
2021/06/28 01:49:51;;;;;;;33.93;24.37;;;21.80;99.90;;;;;;5043177;28;20433;-74
2021/06/28 01:52:18;;;;;;;32.42;22.38;;;21.80;99.90;;;;;;5045358;28;22113;-74
2021/06/28 01:54:45;;;;;;;32.55;24.08;;;21.80;99.90;;;;;;5044619;28;20429;-75
2021/06/28 01:57:12;;;;;;;32.40;23.57;;;21.80;99.90;;;;;;5044832;28;20460;-74
2021/06/28 01:59:41;;;;;;;30.65;22.35;;;21.90;99.90;;;;;;5045572;28;20491;-74
2021/06/28 02:02:08;;;;;;;26.90;20.25;;;21.90;99.90;;;;;;5045716;28;21067;-75
2021/06/28 02:04:36;;;;;;;30.80;21.48;;;21.50;99.90;;;;;;5046506;28;20777;-74
2021/06/28 02:07:07;;;;;;;30.02;21.10;;;21.30;99.90;;;;;;5045775;28;20725;-76
2021/06/28 02:09:35;;;;;;;27.77;19.83;;;21.10;99.90;;;;;;5045827;28;20192;-74
2021/06/28 02:12:02;;;;;;;27.95;20.35;;;21.00;99.90;;;;;;5042983;28;20211;-75
2021/06/28 02:14:29;;;;;;;27.13;19.85;;;20.90;99.90;;;;;;5046168;28;20207;-75
2021/06/28 02:16:57;;;;;;;33.35;22.73;;;20.80;99.90;;;;;;5048830;28;20426;-74
2021/06/28 02:19:25;;;;;;;29.17;21.98;;;21.20;99.90;;;;;;5047332;28;20431;-75
2021/06/28 02:21:53;;;;;;;29.40;22.83;;;21.50;99.90;;;;;;5049270;28;21135;-75
2021/06/28 02:24:20;;;;;;;29.02;21.23;;;21.60;99.90;;;;;;5048283;28;20917;-76
2021/06/28 02:26:47;;;;;;;29.20;21.00;;;21.70;99.90;;;;;;5047947;28;20423;-74
2021/06/28 02:29:14;;;;;;;30.17;21.88;;;21.70;99.90;;;;;;5048187;28;20435;-75
2021/06/28 02:31:41;;;;;;;30.98;21.52;;;21.80;99.90;;;;;;5048902;28;20430;-73
2021/06/28 02:34:10;;;;;;;26.55;20.33;;;21.80;99.90;;;;;;5047057;28;20427;-76
2021/06/28 02:36:38;;;;;;;26.13;20.73;;;21.80;99.90;;;;;;5047555;28;20435;-76
2021/06/28 02:39:06;;;;;;;25.98;20.30;;;21.90;99.90;;;;;;5045005;28;20433;-74
2021/06/28 02:41:34;;;;;;;27.95;20.90;;;21.90;99.90;;;;;;5049723;28;20436;-74
2021/06/28 02:44:01;;;;;;;28.15;19.85;;;21.90;99.90;;;;;;5044671;28;20844;-76
2021/06/28 02:46:28;;;;;;;27.67;20.83;;;21.90;99.90;;;;;;5047749;28;20872;-74
2021/06/28 02:48:55;;;;;;;27.95;19.92;;;21.90;99.90;;;;;;5043991;28;20461;-74
2021/06/28 02:51:23;;;;;;;27.80;20.65;;;21.90;99.90;;;;;;5048358;28;20920;-75
2021/06/28 02:53:50;;;;;;;24.93;19.40;;;22.00;99.90;;;;;;5047088;28;20439;-75
2021/06/28 02:56:19;;;;;;;26.45;19.17;;;22.00;99.90;;;;;;5046903;28;20921;-74
2021/06/28 02:58:48;;;;;;;24.67;19.55;;;22.00;99.90;;;;;;5045884;28;20495;-75
2021/06/28 03:01:17;;;;;;;23.10;18.15;;;22.00;99.90;;;;;;5047907;28;23163;-74
2021/06/28 03:03:44;;;;;;;28.77;19.00;;;22.00;99.90;;;;;;5047079;28;20429;-75
2021/06/28 03:06:11;;;;;;;25.93;18.27;;;21.90;99.90;;;;;;5048142;28;20520;-74
2021/06/28 03:08:39;;;;;;;24.83;19.08;;;22.00;99.90;;;;;;5046826;28;20421;-75
2021/06/28 03:11:06;;;;;;;24.80;19.10;;;22.00;99.90;;;;;;5049883;28;20429;-74
2021/06/28 03:13:34;;;;;;;25.23;18.60;;;22.00;99.90;;;;;;5044144;28;20417;-75
2021/06/28 03:16:01;;;;;;;26.83;18.90;;;22.00;99.90;;;;;;5046216;28;20435;-75
2021/06/28 03:18:28;;;;;;;28.48;18.70;;;21.90;99.90;;;;;;5048963;28;20436;-75
2021/06/28 03:20:55;;;;;;;23.67;18.73;;;21.90;99.90;;;;;;5047924;28;20482;-74
2021/06/28 03:23:22;;;;;;;24.92;18.30;;;21.90;99.90;;;;;;5049444;28;20451;-73
2021/06/28 03:25:51;;;;;;;26.40;19.40;;;21.90;99.90;;;;;;5047586;28;20423;-75
2021/06/28 03:28:18;;;;;;;24.75;18.42;;;21.90;99.90;;;;;;5047556;28;20421;-77
2021/06/28 03:30:45;;;;;;;26.33;18.90;;;21.90;99.90;;;;;;5048585;28;20429;-75
2021/06/28 03:33:12;;;;;;;25.33;18.27;;;21.90;99.90;;;;;;5047713;28;20437;-75
2021/06/28 03:35:39;;;;;;;23.13;17.65;;;21.90;99.90;;;;;;5044963;28;20433;-76
2021/06/28 03:38:06;;;;;;;23.95;17.95;;;21.90;99.90;;;;;;5048435;28;20424;-75
2021/06/28 03:40:34;;;;;;;22.48;17.50;;;21.90;99.90;;;;;;5046702;28;20435;-74
2021/06/28 03:43:05;;;;;;;24.20;18.30;;;21.90;99.90;;;;;;5046304;28;20425;-75
2021/06/28 03:45:33;;;;;;;26.80;18.35;;;21.90;99.90;;;;;;5046291;28;20769;-75
2021/06/28 03:48:00;;;;;;;23.92;18.15;;;21.90;99.90;;;;;;5043945;28;20429;-75
2021/06/28 03:50:27;;;;;;;23.70;17.92;;;21.90;99.90;;;;;;5047184;28;20440;-74
2021/06/28 03:52:54;;;;;;;24.60;18.73;;;21.90;99.90;;;;;;5046344;28;20789;-75
2021/06/28 03:55:21;;;;;;;25.27;18.10;;;21.90;99.90;;;;;;5046359;28;20437;-74
2021/06/28 03:57:48;;;;;;;25.00;18.00;;;21.90;99.90;;;;;;5045821;28;20429;-75
2021/06/28 04:00:20;;;;;;;22.87;17.57;;;21.90;99.90;;;;;;5046457;28;20433;-74
2021/06/28 04:02:48;;;;;;;25.98;18.23;;;21.90;99.90;;;;;;5046595;28;21844;-75
2021/06/28 04:05:19;;;;;;;24.42;17.75;;;21.80;99.90;;;;;;5046007;28;20944;-74
2021/06/28 04:07:46;;;;;;;22.75;17.30;;;21.80;99.90;;;;;;5047035;28;20429;-73
2021/06/28 04:10:15;;;;;;;22.55;17.95;;;21.80;99.90;;;;;;5046857;28;20435;-74
2021/06/28 04:12:42;;;;;;;23.50;17.23;;;21.80;99.90;;;;;;5044134;28;20451;-74
2021/06/28 04:15:11;;;;;;;22.95;17.38;;;21.70;99.90;;;;;;5044146;28;20512;-74
2021/06/28 04:17:40;;;;;;;23.20;17.80;;;21.70;99.90;;;;;;5047771;28;20425;-75
2021/06/28 04:20:08;;;;;;;24.77;18.10;;;21.70;99.90;;;;;;5043256;28;20514;-74
2021/06/28 04:22:35;;;;;;;24.55;16.65;;;21.70;99.90;;;;;;5049583;28;20429;-74
2021/06/28 04:25:03;;;;;;;21.88;16.63;;;21.70;99.90;;;;;;5043868;28;20935;-74
2021/06/28 04:27:29;;;;;;;23.33;17.67;;;21.70;99.90;;;;;;5048441;28;20438;-75
2021/06/28 04:29:56;;;;;;;25.23;17.42;;;21.60;99.90;;;;;;5060463;28;20785;-74
2021/06/28 04:32:23;;;;;;;26.50;18.08;;;21.60;99.90;;;;;;5046047;28;20424;-75
2021/06/28 04:34:52;;;;;;;26.40;18.30;;;21.60;99.90;;;;;;5045899;28;20435;-74
2021/06/28 04:37:18;;;;;;;27.37;17.70;;;21.60;99.90;;;;;;5043231;28;20460;-74
2021/06/28 04:39:45;;;;;;;25.23;18.75;;;21.60;99.90;;;;;;5045553;28;20436;-73
2021/06/28 04:42:12;;;;;;;24.85;17.80;;;21.60;99.90;;;;;;5042902;28;20934;-74
2021/06/28 04:44:39;;;;;;;22.67;17.65;;;21.60;99.90;;;;;;5046875;28;20423;-75
2021/06/28 04:47:06;;;;;;;23.55;16.95;;;21.60;99.90;;;;;;5043741;28;20431;-74
2021/06/28 04:49:33;;;;;;;25.13;18.50;;;21.60;99.90;;;;;;5045918;28;20428;-75
2021/06/28 04:52:02;;;;;;;22.55;17.25;;;21.60;99.90;;;;;;5042051;28;20436;-76
2021/06/28 04:54:28;;;;;;;24.60;17.80;;;21.50;99.90;;;;;;5046499;28;20490;-74
2021/06/28 04:56:55;;;;;;;25.25;17.92;;;21.60;99.90;;;;;;5042263;28;20784;-73
2021/06/28 04:59:22;;;;;;;25.13;18.13;;;21.60;99.90;;;;;;5043872;28;20440;-74
2021/06/28 05:01:49;;;;;;;23.30;17.98;;;21.60;99.90;;;;;;5042268;28;20439;-76
2021/06/28 05:04:16;;;;;;;24.65;18.27;;;21.60;99.90;;;;;;5044887;28;20429;-76
2021/06/28 05:06:44;;;;;;;23.92;17.92;;;21.60;99.90;;;;;;5046282;28;20436;-75
2021/06/28 05:09:12;;;;;;;25.67;18.47;;;21.60;99.90;;;;;;5044858;28;20413;-71
2021/06/28 05:11:39;;;;;;;24.85;18.00;;;21.60;99.90;;;;;;5044562;28;20433;-72
2021/06/28 05:14:06;;;;;;;25.52;18.10;;;21.60;99.90;;;;;;5044135;28;20837;-74
2021/06/28 05:16:33;;;;;;;24.93;18.30;;;21.60;99.90;;;;;;5044244;28;20425;-73
2021/06/28 05:19:00;;;;;;;24.75;17.65;;;21.60;99.90;;;;;;5043186;28;20433;-75
2021/06/28 05:21:27;;;;;;;25.23;18.20;;;21.70;99.90;;;;;;5044297;28;20462;-74
2021/06/28 05:23:54;;;;;;;27.45;18.55;;;21.70;99.90;;;;;;5045114;28;20434;-74
2021/06/28 05:26:22;;;;;;;27.50;18.75;;;21.70;99.90;;;;;;5041405;28;20435;-72
2021/06/28 05:28:49;;;;;;;26.83;17.83;;;21.70;99.90;;;;;;5046232;28;20415;-74
2021/06/28 05:31:16;;;;;;;27.20;18.27;;;21.70;99.90;;;;;;5040935;28;20430;-74
2021/06/28 05:33:43;;;;;;;25.13;18.08;;;21.80;99.90;;;;;;5047153;28;20428;-74
2021/06/28 05:36:09;;;;;;;24.45;17.90;;;21.80;99.90;;;;;;5048107;28;20448;-73
2021/06/28 05:38:36;;;;;;;25.02;18.70;;;21.80;99.90;;;;;;5042886;28;20482;-75
2021/06/28 05:41:03;;;;;;;24.40;17.25;;;21.80;99.90;;;;;;5044669;28;20431;-74
2021/06/28 05:43:32;;;;;;;24.60;18.30;;;21.80;99.90;;;;;;5047207;28;20428;-75
2021/06/28 05:45:59;;;;;;;26.27;19.02;;;21.80;99.90;;;;;;5045989;28;20435;-77
2021/06/28 05:48:25;;;;;;;22.98;17.60;;;21.80;99.90;;;;;;5044889;28;20470;-74
2021/06/28 05:50:52;;;;;;;23.70;18.23;;;21.80;99.90;;;;;;5048072;28;20425;-74
2021/06/28 05:53:19;;;;;;;26.80;18.73;;;21.80;99.90;;;;;;5050376;28;20436;-74
2021/06/28 05:55:47;;;;;;;24.42;18.23;;;21.80;99.90;;;;;;5047653;28;20887;-73
2021/06/28 05:58:17;;;;;;;23.70;17.17;;;21.80;99.90;;;;;;5041881;28;20859;-72
2021/06/28 06:00:45;;;;;;;27.85;18.90;;;21.80;99.90;;;;;;5042637;28;20933;-73
2021/06/28 06:03:13;;;;;;;26.73;18.63;;;21.90;99.90;;;;;;5040997;28;20962;-74
2021/06/28 06:05:40;;;;;;;25.85;19.13;;;21.90;99.90;;;;;;5042344;28;20465;-75
2021/06/28 06:08:07;;;;;;;23.83;18.00;;;21.90;99.90;;;;;;5042756;28;20439;-75
2021/06/28 06:10:34;;;;;;;24.67;18.80;;;21.90;99.90;;;;;;5048263;28;20421;-74
2021/06/28 06:13:01;;;;;;;23.40;18.40;;;21.90;99.90;;;;;;5048806;28;20903;-75
2021/06/28 06:15:28;;;;;;;23.45;18.73;;;21.90;99.90;;;;;;5047520;28;21367;-74
2021/06/28 06:17:57;;;;;;;23.92;18.15;;;21.90;99.90;;;;;;5048037;28;20871;-75
2021/06/28 06:20:24;;;;;;;26.33;18.85;;;22.00;99.90;;;;;;5046848;28;20530;-73
2021/06/28 06:22:52;;;;;;;26.00;19.07;;;21.90;99.90;;;;;;5044534;28;23089;-72
2021/06/28 06:25:19;;;;;;;23.23;18.50;;;22.00;99.90;;;;;;5046735;28;20433;-75
2021/06/28 06:27:46;;;;;;;25.33;19.30;;;22.00;99.90;;;;;;5044829;28;20433;-76
2021/06/28 06:30:14;;;;;;;24.65;18.92;;;22.00;99.90;;;;;;5046363;28;20466;-74
2021/06/28 06:32:41;;;;;;;25.33;18.35;;;22.00;99.90;;;;;;5042977;28;20716;-76
2021/06/28 06:35:10;;;;;;;26.10;17.90;;;22.10;99.90;;;;;;5052653;28;20199;-73
2021/06/28 06:37:37;;;;;;;31.70;22.60;;;21.70;99.90;;;;;;5045865;28;20199;-74
2021/06/28 06:40:06;;;;;;;26.23;19.33;;;21.50;99.90;;;;;;5047683;28;20258;-73
2021/06/28 06:42:33;;;;;;;27.80;19.60;;;21.40;99.90;;;;;;5047095;28;20255;-71
2021/06/28 06:45:00;;;;;;;27.63;18.65;;;21.30;99.90;;;;;;5046003;28;20286;-74
2021/06/28 06:47:27;;;;;;;25.67;18.63;;;21.20;99.90;;;;;;5049560;28;20204;-77
2021/06/28 06:49:54;;;;;;;22.33;16.98;;;21.10;99.90;;;;;;5047319;28;20282;-76
2021/06/28 06:52:23;;;;;;;24.13;17.83;;;21.10;99.90;;;;;;5050995;28;20290;-74
2021/06/28 06:54:50;;;;;;;26.95;18.98;;;21.10;99.90;;;;;;5051159;28;20278;-75
2021/06/28 06:57:17;;;;;;;25.92;18.20;;;21.10;99.90;;;;;;5046558;28;20223;-75
2021/06/28 06:59:44;;;;;;;32.72;17.95;;;21.10;99.90;;;;;;5045542;28;20229;-74
2021/06/28 07:02:11;;;;;;;24.10;17.45;;;21.10;99.90;;;;;;5042054;28;20218;-75
2021/06/28 07:04:38;;;;;;;25.15;18.48;;;21.10;99.90;;;;;;5045217;28;20555;-74
2021/06/28 07:07:05;;;;;;;24.33;18.17;;;21.10;99.90;;;;;;5041578;28;20992;-75
2021/06/28 07:09:33;;;;;;;23.65;18.23;;;21.60;99.90;;;;;;5049702;28;20483;-76
2021/06/28 07:12:00;;;;;;;22.83;16.02;;;21.90;99.90;;;;;;5045896;28;20691;-74
2021/06/28 07:14:27;;;;;;;24.30;16.52;;;21.80;99.90;;;;;;5062948;28;20207;-75
2021/06/28 07:16:54;;;;;;;22.73;16.30;;;21.60;99.90;;;;;;5050985;28;20321;-73
2021/06/28 07:19:21;;;;;;;21.98;16.27;;;21.60;99.90;;;;;;5044029;28;20218;-77
2021/06/28 07:21:49;;;;;;;23.77;16.65;;;21.50;99.90;;;;;;5047911;28;20265;-78
2021/06/28 07:24:16;;;;;;;24.55;17.42;;;21.50;99.90;;;;;;5046771;28;20229;-75
2021/06/28 07:26:45;;;;;;;21.35;15.13;;;21.50;99.90;;;;;;5047933;28;20199;-75
2021/06/28 07:29:12;;;;;;;25.98;16.42;;;21.50;99.90;;;;;;5044348;28;20207;-76
2021/06/28 07:31:39;;;;;;;23.58;17.35;;;21.50;99.90;;;;;;5045794;28;20291;-75
2021/06/28 07:34:07;;;;;;;21.02;16.45;;;21.50;99.90;;;;;;5045055;28;20209;-74
2021/06/28 07:36:34;;;;;;;28.42;16.08;;;21.50;99.90;;;;;;5048882;28;20233;-74
2021/06/28 07:39:03;;;;;;;22.85;16.25;;;21.60;99.90;;;;;;5048493;28;20211;-73
2021/06/28 07:41:30;;;;;;;22.60;15.45;;;21.60;99.90;;;;;;5046520;28;20236;-73
2021/06/28 07:44:00;;;;;;;21.85;15.23;;;21.60;99.90;;;;;;5045111;28;20211;-73
2021/06/28 07:46:27;;;;;;;21.88;14.18;;;21.60;99.90;;;;;;5046234;28;20705;-72
2021/06/28 07:48:54;;;;;;;18.35;14.55;;;21.60;99.90;;;;;;5043820;28;20546;-74
2021/06/28 07:51:22;;;;;;;22.45;14.27;;;21.60;99.90;;;;;;5043914;28;20191;-74
2021/06/28 07:53:50;;;;;;;22.08;15.43;;;21.60;99.90;;;;;;5042967;28;20205;-73
2021/06/28 07:56:18;;;;;;;20.13;14.98;;;21.60;99.90;;;;;;5044285;28;20249;-73
2021/06/28 07:58:46;;;;;;;21.65;14.60;;;21.60;99.90;;;;;;5042867;28;20667;-71
2021/06/28 08:01:15;;;;;;;24.77;17.40;;;21.60;99.90;;;;;;5044911;28;20215;-75
2021/06/28 08:03:45;;;;;;;29.10;15.95;;;21.60;99.90;;;;;;5039745;28;20207;-76
2021/06/28 08:06:12;;;;;;;25.77;16.33;;;21.60;99.90;;;;;;5044353;28;20386;-72
2021/06/28 08:08:39;;;;;;;24.75;17.20;;;21.70;99.90;;;;;;5044531;28;20203;-72
2021/06/28 08:11:07;;;;;;;21.65;16.20;;;21.70;99.90;;;;;;5043705;28;20289;-73
2021/06/28 08:13:34;;;;;;;23.88;16.73;;;21.70;99.90;;;;;;5045522;28;20553;-72
2021/06/28 08:16:02;;;;;;;23.83;14.82;;;21.70;99.90;;;;;;5048465;28;20714;-76
2021/06/28 08:18:30;;;;;;;21.70;15.88;;;21.80;99.90;;;;;;5045662;28;20266;-73
2021/06/28 08:20:57;;;;;;;21.52;15.82;;;21.80;99.90;;;;;;5063875;28;20215;-73
2021/06/28 08:23:24;;;;;;;21.60;15.70;;;21.80;99.90;;;;;;5044200;28;20199;-74
2021/06/28 08:25:51;;;;;;;22.02;15.75;;;21.80;99.90;;;;;;5044937;28;20199;-74
2021/06/28 08:28:18;;;;;;;20.10;15.20;;;21.80;99.90;;;;;;5045257;28;20857;-73
2021/06/28 08:30:45;;;;;;;24.48;16.08;;;21.90;99.90;;;;;;5045407;28;20948;-74
2021/06/28 08:33:12;;;;;;;23.00;16.60;;;22.00;99.90;;;;;;5046587;28;20880;-71
2021/06/28 08:35:41;;;;;;;26.85;17.77;;;22.00;99.90;;;;;;5045199;28;20237;-74
2021/06/28 08:38:09;;;;;;;23.58;17.65;;;22.00;99.90;;;;;;5046247;28;20206;-75
2021/06/28 08:40:36;;;;;;;23.58;16.23;;;22.00;99.90;;;;;;5047331;28;20214;-73
2021/06/28 08:43:04;;;;;;;25.08;15.82;;;22.10;99.90;;;;;;5045927;28;20227;-74
2021/06/28 08:45:35;;;;;;;19.60;15.45;;;22.10;99.90;;;;;;5050309;28;20199;-72
2021/06/28 08:48:02;;;;;;;21.33;15.85;;;22.10;99.90;;;;;;5043354;28;20213;-76
2021/06/28 08:50:29;;;;;;;26.65;16.70;;;22.20;99.90;;;;;;5048608;28;20206;-75
2021/06/28 08:52:58;;;;;;;23.38;16.92;;;22.20;99.90;;;;;;5044478;28;20256;-74
2021/06/28 08:55:24;;;;;;;21.80;16.02;;;22.20;99.90;;;;;;5045551;28;20207;-72
2021/06/28 08:57:51;;;;;;;20.48;16.70;;;22.30;99.90;;;;;;5046032;28;20671;-72
2021/06/28 09:00:20;;;;;;;21.42;15.73;;;22.40;99.90;;;;;;5048422;28;20223;-73
2021/06/28 09:02:54;;;;;;;22.02;15.57;;;22.40;99.90;;;;;;5049606;28;20203;-71
2021/06/28 09:05:21;;;;;;;23.85;15.85;;;22.40;99.90;;;;;;5046058;28;20207;-73
2021/06/28 09:07:48;;;;;;;27.70;16.98;;;22.50;99.90;;;;;;5048274;28;20191;-77
2021/06/28 09:10:37;;;;;;;27.25;18.00;;;22.50;99.90;;;;;;5045044;28;20211;-74
2021/06/28 09:13:04;;;;;;;25.25;17.08;;;22.60;99.90;;;;;;5045174;28;20203;-72
2021/06/28 09:15:39;;;;;;;23.98;17.55;;;22.60;99.90;;;;;;5046784;28;20544;-74
2021/06/28 09:18:22;;;;;;;26.65;18.13;;;22.60;99.90;;;;;;5045301;28;20210;-72
2021/06/28 09:20:50;;;;;;;24.33;18.50;;;22.70;99.90;;;;;;5047189;28;20217;-75
2021/06/28 09:23:20;;;;;;;24.80;18.23;;;22.70;99.90;;;;;;5046280;28;20191;-74
2021/06/28 09:25:49;;;;;;;27.58;17.88;;;22.80;99.90;;;;;;5043779;28;20245;-71
2021/06/28 09:28:30;;;;;;;25.85;16.90;;;22.90;99.90;;;;;;5047970;28;20211;-73
2021/06/28 09:30:57;;;;;;;26.38;16.50;;;22.90;99.90;;;;;;5047859;28;20205;-73
2021/06/28 09:33:24;;;;;;;24.65;15.85;;;23.00;99.90;;;;;;5046806;28;20207;-73
2021/06/28 09:35:51;;;;;;;23.05;16.65;;;23.10;99.90;;;;;;5048054;28;20207;-74
2021/06/28 09:38:37;;;;;;;19.80;14.85;;;23.20;99.90;;;;;;5046124;28;20206;-73
2021/06/28 09:41:23;;;;;;;20.65;14.63;;;23.30;99.90;;;;;;5047051;28;20250;-71
2021/06/28 09:43:50;;;;;;;23.65;16.20;;;23.30;99.90;;;;;;5045604;28;20198;-73
2021/06/28 09:46:18;;;;;;;23.13;14.90;;;23.40;99.90;;;;;;5045308;28;20203;-73
2021/06/28 09:48:48;;;;;;;21.58;16.15;;;23.50;99.90;;;;;;5048700;28;20218;-73
2021/06/28 09:51:27;;;;;;;22.73;15.68;;;23.50;99.90;;;;;;5046495;28;20213;-73
2021/06/28 09:53:56;;;;;;;22.27;16.73;;;23.60;99.90;;;;;;5045744;28;20294;-72
2021/06/28 09:56:32;;;;;;;18.08;14.07;;;23.60;99.90;;;;;;5045066;28;20200;-72
2021/06/28 09:58:59;;;;;;;22.45;15.13;;;23.70;99.90;;;;;;5044711;28;20209;-71
2021/06/28 10:01:27;;;;;;;20.27;14.07;;;23.80;99.90;;;;;;5042823;28;20223;-72
2021/06/28 10:03:55;;;;;;;18.65;13.82;;;23.90;99.90;;;;;;5044236;28;20233;-72
2021/06/28 10:06:31;;;;;;;21.48;14.63;;;23.90;99.90;;;;;;5044967;28;20313;-74
2021/06/28 10:09:05;;;;;;;19.50;14.70;;;24.10;99.90;;;;;;5042694;28;20686;-74
2021/06/28 10:11:35;;;;;;;18.38;14.82;;;24.10;99.90;;;;;;5047520;28;20199;-73
2021/06/28 10:14:03;;;;;;;19.30;13.82;;;24.10;99.90;;;;;;5044608;28;20199;-72
2021/06/28 10:16:33;;;;;;;21.67;15.02;;;24.10;99.90;;;;;;5045818;28;20584;-74
2021/06/28 10:19:01;;;;;;;19.90;14.57;;;24.10;99.90;;;;;;5041601;28;21447;-74
2021/06/28 10:21:28;;;;;;;17.27;13.95;;;24.10;99.90;;;;;;5039856;28;20219;-75
2021/06/28 10:23:56;;;;;;;18.75;14.13;;;24.10;99.90;;;;;;5045741;28;20583;-72
2021/06/28 10:26:24;;;;;;;19.42;13.93;;;24.10;99.90;;;;;;5042120;28;20201;-74
2021/06/28 10:28:53;;;;;;;18.55;14.27;;;24.10;99.90;;;;;;5043462;28;20213;-73
2021/06/28 10:31:20;;;;;;;21.08;15.30;;;24.00;99.90;;;;;;5043197;28;20824;-76
2021/06/28 10:33:54;;;;;;;23.38;15.23;;;24.00;99.90;;;;;;5050795;28;20577;-74
2021/06/28 10:36:21;;;;;;;21.45;14.27;;;23.90;99.90;;;;;;5046075;28;20222;-71
2021/06/28 10:38:50;;;;;;;19.70;14.40;;;23.80;99.90;;;;;;5054679;28;20202;-72
2021/06/28 10:41:36;;;;;;;20.70;15.63;;;23.80;99.90;;;;;;5042011;28;20728;-72
2021/06/28 10:44:07;;;;;;;19.58;15.77;;;23.80;99.90;;;;;;5045895;28;20218;-75
2021/06/28 10:46:35;;;;;;;30.40;16.65;;;23.70;99.90;;;;;;5054034;28;20206;-73
2021/06/28 10:49:03;;;;;;;22.60;16.40;;;23.70;99.90;;;;;;5052033;28;20199;-73
2021/06/28 10:51:41;;;;;;;19.55;16.10;;;23.70;99.90;;;;;;5042911;28;20195;-74
2021/06/28 10:54:10;;;;;;;21.13;15.85;;;23.70;99.90;;;;;;5049413;28;20227;-73
2021/06/28 10:56:57;;;;;;;21.08;16.33;;;23.60;99.90;;;;;;5049010;28;20203;-71
2021/06/28 10:59:29;;;;;;;23.08;17.02;;;23.60;99.90;;;;;;5047362;28;20245;-72
2021/06/28 11:02:01;;;;;;;25.08;16.15;;;23.60;99.90;;;;;;5045356;28;20296;-75
2021/06/28 11:04:30;;;;;;;23.05;16.13;;;23.60;99.90;;;;;;5047552;28;20943;-74
2021/06/28 11:07:11;;;;;;;26.65;16.73;;;23.50;99.90;;;;;;5048583;28;20568;-72
2021/06/28 11:09:41;;;;;;;20.92;16.08;;;23.60;99.90;;;;;;5049594;28;20199;-74
2021/06/28 11:12:27;;;;;;;19.52;14.98;;;23.60;99.90;;;;;;5045295;28;20307;-74
2021/06/28 11:14:58;;;;;;;21.70;15.75;;;23.60;99.90;;;;;;5047374;28;20262;-75
2021/06/28 11:17:49;;;;;;;22.85;15.43;;;23.60;99.90;;;;;;5048727;28;20221;-74
2021/06/28 11:20:22;;;;;;;20.30;15.85;;;23.60;99.90;;;;;;5046647;28;20229;-73
2021/06/28 11:23:02;;;;;;;24.50;15.95;;;23.60;99.90;;;;;;5047841;28;20207;-72
2021/06/28 11:25:41;;;;;;;21.95;15.32;;;23.70;99.90;;;;;;5042162;28;20231;-73
2021/06/28 11:28:20;;;;;;;22.98;16.45;;;23.70;99.90;;;;;;5047669;28;20202;-73
2021/06/28 11:30:51;;;;;;;26.10;16.05;;;23.70;99.90;;;;;;5045723;28;20187;-72
2021/06/28 11:33:33;;;;;;;20.15;15.73;;;23.70;99.90;;;;;;5051971;28;20740;-74
2021/06/28 11:36:00;;;;;;;21.42;15.68;;;23.70;99.90;;;;;;5052417;28;20195;-73
2021/06/28 11:38:28;;;;;;;21.52;16.42;;;23.80;99.90;;;;;;5049855;28;20249;-73
2021/06/28 11:40:57;;;;;;;22.65;17.90;;;23.80;99.90;;;;;;5048238;28;20270;-73
2021/06/28 11:43:42;;;;;;;22.98;17.30;;;23.80;99.90;;;;;;5048355;28;20733;-74
2021/06/28 11:46:12;;;;;;;22.20;16.75;;;23.90;99.90;;;;;;5043345;28;20304;-71
2021/06/28 11:48:41;;;;;;;24.08;17.40;;;23.90;99.90;;;;;;5049479;28;20571;-74
2021/06/28 11:51:17;;;;;;;23.08;16.80;;;24.00;99.90;;;;;;5048361;28;20237;-73
2021/06/28 11:53:50;;;;;;;24.00;17.05;;;24.00;99.90;;;;;;5046636;28;20199;-73
2021/06/28 11:56:25;;;;;;;25.23;17.30;;;24.10;99.90;;;;;;5045939;28;20226;-73
2021/06/28 11:59:00;;;;;;;24.50;18.60;;;24.10;99.90;;;;;;5045819;28;20674;-72
2021/06/28 12:01:31;;;;;;;22.92;17.50;;;24.10;99.90;;;;;;5045325;28;20218;-71
2021/06/28 12:04:00;;;;;;;26.83;17.90;;;24.10;99.90;;;;;;5046060;28;20221;-72
2021/06/28 12:06:29;;;;;;;23.63;18.52;;;24.20;99.90;;;;;;5047151;28;20687;-73
2021/06/28 12:09:10;;;;;;;32.58;18.08;;;24.20;99.90;;;;;;5049945;28;20257;-70
2021/06/28 12:11:48;;;;;;;29.10;18.90;;;24.20;99.90;;;;;;5046596;28;20183;-72
2021/06/28 12:14:32;;;;;;;24.80;19.38;;;24.30;99.90;;;;;;5039472;28;20226;-71
2021/06/28 12:17:07;;;;;;;29.85;20.27;;;24.30;99.90;;;;;;5045382;28;20202;-70
2021/06/28 12:19:34;;;;;;;26.60;20.08;;;24.30;99.90;;;;;;5045447;28;20206;-71
2021/06/28 12:22:08;;;;;;;28.30;19.85;;;24.30;99.90;;;;;;5042009;28;20222;-72
2021/06/28 12:24:35;;;;;;;29.33;19.83;;;24.30;99.90;;;;;;5045184;28;20202;-71
2021/06/28 12:27:05;;;;;;;25.08;18.92;;;24.30;99.90;;;;;;5045688;28;20209;-73
2021/06/28 12:29:37;;;;;;;28.55;21.05;;;24.30;99.70;;;;;;5043483;28;20655;-71
2021/06/28 12:32:13;;;;;;;27.25;19.65;;;24.30;99.60;;;;;;5045932;28;20660;-72
2021/06/28 12:34:46;;;;;;;29.52;19.75;;;24.30;99.50;;;;;;5043630;28;20213;-70
2021/06/28 12:37:13;;;;;;;28.13;20.10;;;24.30;99.30;;;;;;5047787;28;20211;-71